You are not logged in, Click here to log in
機場資訊:UBBB Welcome to Taiwan Airways 台灣虛擬航空
ICAO: UBBB Country: 亞塞拜然首都巴庫東北方20公里的國際機場
Latitude: 40.4675 Longitude: 50.0467
Total Arrivals: 2 Total Departures: 2
Latest Arrival: SU1852 (UUEE-UBBB)Jason. Li Latest Departure: FS21 (UBBB-UTAK)Jason. Li
Scenery:
METAR : UBBB 132030Z 20008KT 9999 FEW027 19/14 Q1028 R88/D NOSIG

蓋達爾·阿利耶夫國際機場GYD